createdAt,value
2019-01-24T00:02:10.337Z,71.40
2019-01-24T00:04:40.917Z,56.57
2019-01-24T00:07:13.207Z,61.00
2019-01-24T00:09:43.640Z,71.17
2019-01-24T00:12:13.991Z,39.23
2019-01-24T00:14:44.493Z,63.30
2019-01-24T00:17:14.910Z,64.83
2019-01-24T00:19:45.467Z,46.67
2019-01-24T00:22:16.041Z,59.20
2019-01-24T00:24:46.477Z,67.73
2019-01-24T00:27:17.118Z,55.00
2019-01-24T00:29:47.727Z,55.37
2019-01-24T00:32:18.123Z,34.50
2019-01-24T00:34:48.909Z,51.83
2019-01-24T00:37:19.297Z,47.07
2019-01-24T00:39:50.843Z,57.10
2019-01-24T00:42:23.685Z,54.30
2019-01-24T00:44:53.987Z,60.20
2019-01-24T00:47:24.615Z,64.60
2019-01-24T00:49:56.321Z,42.00
2019-01-24T00:52:26.803Z,31.07
2019-01-24T00:54:57.161Z,52.37
2019-01-24T00:57:27.969Z,67.83
2019-01-24T00:59:58.527Z,46.63
2019-01-24T01:02:28.955Z,47.73
2019-01-24T01:04:59.395Z,56.53
2019-01-24T01:07:29.860Z,31.13
2019-01-24T01:10:00.342Z,50.00
2019-01-24T01:12:30.926Z,67.73
2019-01-24T01:15:01.448Z,70.33
2019-01-24T01:17:31.699Z,55.37
2019-01-24T01:20:02.002Z,37.07
2019-01-24T01:22:32.508Z,39.93
2019-01-24T01:25:03.508Z,35.13
2019-01-24T01:27:34.407Z,40.87
2019-01-24T01:30:06.165Z,33.23
2019-01-24T01:32:36.833Z,48.33
2019-01-24T01:35:08.044Z,58.50
2019-01-24T01:37:38.355Z,59.37
2019-01-24T01:40:09.732Z,56.03
2019-01-24T01:42:40.327Z,40.33
2019-01-24T01:45:16.004Z,33.67
2019-01-24T01:47:46.395Z,32.83
2019-01-24T01:50:19.087Z,44.90
2019-01-24T01:52:49.521Z,52.37
2019-01-24T01:55:20.395Z,29.63
2019-01-24T01:57:50.759Z,53.87
2019-01-24T02:00:23.167Z,27.77
2019-01-24T02:02:54.079Z,54.50
2019-01-24T02:05:24.517Z,30.50
2019-01-24T02:07:54.993Z,22.97
2019-01-24T02:10:25.640Z,23.77
2019-01-24T02:12:58.985Z,41.93
2019-01-24T02:15:29.536Z,31.37
2019-01-24T02:18:00.011Z,51.97
2019-01-24T02:20:30.940Z,27.30
2019-01-24T02:23:01.523Z,49.07
2019-01-24T02:25:31.903Z,35.27
2019-01-24T02:28:02.310Z,40.67
2019-01-24T02:30:32.955Z,43.50
2019-01-24T02:33:03.347Z,24.33
2019-01-24T02:35:33.800Z,36.60
2019-01-24T02:38:06.312Z,39.70
2019-01-24T02:40:36.921Z,19.90
2019-01-24T02:43:07.343Z,33.90
2019-01-24T02:45:37.974Z,26.80
2019-01-24T02:48:08.488Z,35.07
2019-01-24T02:50:38.961Z,43.63
2019-01-24T02:53:09.510Z,24.07
2019-01-24T02:55:40.025Z,26.77
2019-01-24T02:58:10.502Z,31.80
2019-01-24T03:00:40.915Z,30.33
2019-01-24T03:03:11.678Z,27.13
2019-01-24T03:05:42.154Z,48.93
2019-01-24T03:08:12.782Z,30.17
2019-01-24T03:10:43.140Z,43.93
2019-01-24T03:13:13.468Z,26.67
2019-01-24T03:15:45.597Z,28.33
2019-01-24T03:18:16.166Z,42.13
2019-01-24T03:20:48.465Z,37.30
2019-01-24T03:23:18.969Z,42.37
2019-01-24T03:25:49.747Z,15.80
2019-01-24T03:28:20.073Z,45.10
2019-01-24T03:30:50.661Z,30.17
2019-01-24T03:33:21.152Z,43.63
2019-01-24T03:35:53.154Z,41.87
2019-01-24T03:38:23.547Z,47.13
2019-01-24T03:40:53.935Z,42.70
2019-01-24T03:43:24.467Z,46.47
2019-01-24T03:45:55.309Z,52.87
2019-01-24T03:48:25.766Z,47.50
2019-01-24T03:50:56.327Z,41.53
2019-01-24T03:53:26.834Z,36.23
2019-01-24T03:55:57.720Z,45.87
2019-01-24T03:58:28.142Z,41.43
2019-01-24T04:00:58.495Z,30.70
2019-01-24T04:03:29.170Z,38.87
2019-01-24T04:06:00.179Z,17.37
2019-01-24T04:08:30.967Z,45.87
2019-01-24T04:11:01.426Z,38.23
2019-01-24T04:13:32.036Z,43.23
2019-01-24T04:16:02.570Z,43.40
2019-01-24T04:18:33.159Z,42.27
2019-01-24T04:21:03.547Z,47.43
2019-01-24T04:23:34.165Z,44.73
2019-01-24T04:26:04.761Z,46.73
2019-01-24T04:28:35.093Z,46.77
2019-01-24T04:31:05.472Z,44.37
2019-01-24T04:33:35.776Z,42.27
2019-01-24T04:36:06.083Z,49.60
2019-01-24T04:38:36.454Z,45.40
2019-01-24T04:41:06.896Z,45.43
2019-01-24T04:43:37.310Z,49.63
2019-01-24T04:46:07.960Z,46.07
2019-01-24T04:48:38.709Z,49.17
2019-01-24T04:51:09.449Z,45.77
2019-01-24T04:53:39.889Z,46.30
2019-01-24T04:56:10.722Z,45.50
2019-01-24T04:58:41.276Z,40.70
2019-01-24T05:01:11.806Z,44.83
2019-01-24T05:03:42.614Z,44.93
2019-01-24T05:06:13.020Z,49.00
2019-01-24T05:08:43.714Z,46.07
2019-01-24T05:11:14.086Z,46.57
2019-01-24T05:13:44.717Z,45.73
2019-01-24T05:16:15.289Z,44.27
2019-01-24T05:18:46.089Z,42.63
2019-01-24T05:21:16.555Z,45.03
2019-01-24T05:23:47.011Z,40.53
2019-01-24T05:26:17.616Z,42.63
2019-01-24T05:28:48.418Z,43.63
2019-01-24T05:31:18.694Z,46.03
2019-01-24T05:33:49.096Z,41.77
2019-01-24T05:36:19.573Z,37.13
2019-01-24T05:38:50.018Z,41.80
2019-01-24T05:41:20.407Z,52.10
2019-01-24T05:43:53.581Z,42.07
2019-01-24T05:46:23.298Z,48.60
2019-01-24T05:48:54.064Z,44.73
2019-01-24T05:51:24.509Z,35.73
2019-01-24T05:53:54.895Z,44.70
2019-01-24T05:56:25.348Z,40.53
2019-01-24T05:58:55.692Z,46.40
2019-01-24T06:01:26.403Z,44.17
2019-01-24T06:03:57.040Z,40.00
2019-01-24T06:06:27.447Z,44.23
2019-01-24T06:08:58.061Z,40.90
2019-01-24T06:11:28.924Z,47.43
2019-01-24T06:13:59.308Z,44.83
2019-01-24T06:16:29.490Z,44.63
2019-01-24T06:18:59.885Z,52.73
2019-01-24T06:21:30.246Z,46.43
2019-01-24T06:24:00.573Z,44.33
2019-01-24T06:26:31.143Z,50.47
2019-01-24T06:29:02.998Z,40.70
2019-01-24T06:31:33.475Z,39.33
2019-01-24T06:34:04.445Z,40.30
2019-01-24T06:36:34.748Z,50.40
2019-01-24T06:39:07.485Z,41.77
2019-01-24T06:41:37.899Z,46.57
2019-01-24T06:44:09.182Z,43.27
2019-01-24T06:46:39.375Z,43.00
2019-01-24T06:49:09.574Z,52.70
2019-01-24T06:51:39.804Z,44.20
2019-01-24T06:54:10.008Z,53.23
2019-01-24T06:56:40.292Z,48.33
2019-01-24T06:59:10.573Z,40.23
2019-01-24T07:01:40.801Z,44.77
2019-01-24T07:04:11.024Z,44.10
2019-01-24T07:06:42.539Z,46.53
2019-01-24T07:09:12.770Z,48.77
2019-01-24T07:11:43.269Z,40.73
2019-01-24T07:14:13.673Z,44.40
2019-01-24T07:16:44.343Z,50.83
2019-01-24T07:19:15.536Z,47.00
2019-01-24T07:21:46.161Z,46.77
2019-01-24T07:24:16.877Z,35.30
2019-01-24T07:26:47.465Z,41.63
2019-01-24T07:29:18.036Z,47.80
2019-01-24T07:31:48.931Z,43.33
2019-01-24T07:34:19.743Z,51.57
2019-01-24T07:36:52.066Z,48.60
2019-01-24T07:39:22.592Z,50.20
2019-01-24T07:41:53.961Z,45.53
2019-01-24T07:44:24.835Z,47.13
2019-01-24T07:46:55.357Z,51.53
2019-01-24T07:49:26.430Z,41.20
2019-01-24T07:51:57.128Z,42.53
2019-01-24T07:54:27.840Z,47.77
2019-01-24T07:56:58.984Z,49.33
2019-01-24T07:59:30.011Z,48.10
2019-01-24T08:02:00.979Z,52.47
2019-01-24T08:04:31.814Z,58.73
2019-01-24T08:07:02.398Z,51.70
2019-01-24T08:09:33.851Z,54.70
2019-01-24T08:12:05.044Z,48.43
2019-01-24T08:14:35.812Z,55.93
2019-01-24T08:17:06.575Z,58.87
2019-01-24T08:19:37.781Z,58.37
2019-01-24T08:22:08.635Z,58.10
2019-01-24T08:24:39.525Z,60.27
2019-01-24T08:27:10.639Z,50.93
2019-01-24T08:29:41.991Z,55.80
2019-01-24T08:32:12.916Z,54.70
2019-01-24T08:34:43.811Z,53.17
2019-01-24T08:37:15.002Z,50.30
2019-01-24T08:39:45.971Z,53.60
2019-01-24T08:42:16.671Z,55.27
2019-01-24T08:44:48.039Z,54.00
2019-01-24T08:47:19.473Z,50.90
2019-01-24T08:49:53.288Z,48.80
2019-01-24T08:52:24.615Z,52.13
2019-01-24T08:54:55.384Z,48.30
2019-01-24T08:57:26.461Z,46.13
2019-01-24T08:59:57.169Z,54.90
2019-01-24T09:02:28.212Z,50.47
2019-01-24T09:04:59.368Z,50.07
2019-01-24T09:07:30.080Z,45.37
2019-01-24T09:10:00.997Z,49.43
2019-01-24T09:12:32.155Z,43.00
2019-01-24T09:15:02.799Z,49.47
2019-01-24T09:17:33.912Z,53.80
2019-01-24T09:20:06.013Z,48.00
2019-01-24T09:22:37.077Z,48.13
2019-01-24T09:25:08.428Z,47.00
2019-01-24T09:27:38.922Z,48.90
2019-01-24T09:30:13.101Z,48.90
2019-01-24T09:32:44.048Z,53.67
2019-01-24T09:35:15.031Z,51.20
2019-01-24T09:37:45.920Z,51.83
2019-01-24T09:40:17.479Z,49.63
2019-01-24T09:42:49.021Z,50.33
2019-01-24T09:45:24.804Z,53.73
2019-01-24T09:47:57.406Z,43.50
2019-01-24T09:50:28.171Z,49.80
2019-01-24T09:52:59.112Z,51.57
2019-01-24T09:55:29.724Z,48.40
2019-01-24T09:58:00.712Z,46.50
2019-01-24T10:00:36.811Z,47.90
2019-01-24T10:03:08.529Z,49.17
2019-01-24T10:05:39.217Z,50.17
2019-01-24T10:08:10.170Z,49.60
2019-01-24T10:10:40.779Z,60.03
2019-01-24T10:13:11.414Z,57.77
2019-01-24T10:15:42.263Z,51.97
2019-01-24T10:18:12.633Z,53.17
2019-01-24T10:20:43.504Z,53.00
2019-01-24T10:23:16.009Z,52.80
2019-01-24T10:25:47.159Z,51.63
2019-01-24T10:28:18.147Z,53.00
2019-01-24T10:30:50.564Z,48.47
2019-01-24T10:33:22.787Z,54.67
2019-01-24T10:35:53.796Z,53.27
2019-01-24T10:38:24.771Z,50.07
2019-01-24T10:40:55.755Z,49.67
2019-01-24T10:43:27.409Z,50.77
2019-01-24T10:45:58.189Z,49.87
2019-01-24T10:48:29.294Z,54.27
2019-01-24T10:51:00.141Z,49.20
2019-01-24T10:53:30.996Z,49.30
2019-01-24T10:56:01.670Z,56.50
2019-01-24T10:58:32.602Z,49.20
2019-01-24T11:01:03.422Z,54.73
2019-01-24T11:03:34.311Z,48.57
2019-01-24T11:06:05.006Z,51.77
2019-01-24T11:08:35.618Z,57.83
2019-01-24T11:11:06.555Z,51.83
2019-01-24T11:13:37.427Z,47.20
2019-01-24T11:16:08.769Z,46.77
2019-01-24T11:18:39.936Z,40.20
2019-01-24T11:21:11.977Z,51.60
2019-01-24T11:23:45.172Z,54.07
2019-01-24T11:26:22.497Z,50.03
2019-01-24T11:28:52.805Z,44.83
2019-01-24T11:31:24.092Z,51.23
2019-01-24T11:33:55.300Z,58.90
2019-01-24T11:36:26.799Z,50.77
2019-01-24T11:39:01.542Z,50.43
2019-01-24T11:41:32.401Z,48.57
2019-01-24T11:44:03.590Z,50.97
2019-01-24T11:46:34.754Z,45.10
2019-01-24T11:49:05.798Z,50.33
2019-01-24T11:51:36.726Z,48.00
2019-01-24T11:54:07.416Z,51.00
2019-01-24T11:56:37.977Z,43.53
2019-01-24T11:59:08.932Z,52.87
2019-01-24T12:01:39.956Z,49.83
2019-01-24T12:04:10.754Z,52.60
2019-01-24T12:06:42.262Z,45.47
2019-01-24T12:09:13.348Z,46.73
2019-01-24T12:11:43.926Z,49.97
2019-01-24T12:14:14.651Z,48.07
2019-01-24T12:16:45.861Z,41.30
2019-01-24T12:19:16.740Z,45.77
2019-01-24T12:21:47.300Z,49.73
2019-01-24T12:24:17.610Z,48.40
2019-01-24T12:26:48.484Z,43.70
2019-01-24T12:29:19.056Z,51.03
2019-01-24T12:31:49.653Z,44.90
2019-01-24T12:34:20.097Z,45.60
2019-01-24T12:36:50.702Z,42.53
2019-01-24T12:39:21.306Z,43.37
2019-01-24T12:41:52.555Z,44.57
2019-01-24T12:44:23.512Z,47.97
2019-01-24T12:46:54.314Z,46.60
2019-01-24T12:49:25.037Z,45.30
2019-01-24T12:51:56.018Z,45.43
2019-01-24T12:54:27.063Z,42.33
2019-01-24T12:56:57.594Z,43.70
2019-01-24T12:59:28.570Z,45.97
2019-01-24T13:01:58.998Z,45.30
2019-01-24T13:04:29.690Z,44.73
2019-01-24T13:07:00.151Z,40.10
2019-01-24T13:09:30.904Z,41.87
2019-01-24T13:12:01.354Z,41.50
2019-01-24T13:14:31.750Z,43.33
2019-01-24T13:17:02.158Z,41.47
2019-01-24T13:19:32.520Z,43.47
2019-01-24T13:22:03.081Z,39.93
2019-01-24T13:24:33.662Z,41.63
2019-01-24T13:27:04.903Z,41.20
2019-01-24T13:29:35.378Z,38.07
2019-01-24T13:32:06.152Z,39.03
2019-01-24T13:34:39.103Z,42.67
2019-01-24T13:37:09.619Z,45.17
2019-01-24T13:39:40.087Z,43.50
2019-01-24T13:42:10.681Z,31.60
2019-01-24T13:44:41.054Z,43.27
2019-01-24T13:47:11.583Z,46.70
2019-01-24T13:49:46.301Z,45.87
2019-01-24T13:52:16.938Z,41.63
2019-01-24T13:54:47.384Z,40.27
2019-01-24T13:57:18.038Z,37.13
2019-01-24T13:59:49.111Z,41.07
2019-01-24T14:02:23.999Z,40.83
2019-01-24T14:04:54.869Z,36.67
2019-01-24T14:07:25.654Z,32.80
2019-01-24T14:09:57.057Z,31.90
2019-01-24T14:12:27.554Z,38.10
2019-01-24T14:14:58.117Z,32.23
2019-01-24T14:17:28.821Z,37.83
2019-01-24T14:19:59.903Z,30.70
2019-01-24T14:22:31.042Z,30.57
2019-01-24T14:25:01.579Z,35.80
2019-01-24T14:27:32.216Z,34.47
2019-01-24T14:30:02.581Z,29.67
2019-01-24T14:32:33.251Z,33.67
2019-01-24T14:35:03.923Z,30.53
2019-01-24T14:37:39.809Z,34.37
2019-01-24T14:40:09.317Z,30.33
2019-01-24T14:42:40.408Z,41.43
2019-01-24T14:45:13.525Z,40.60
2019-01-24T14:47:46.143Z,27.57
2019-01-24T14:50:19.301Z,66.53
2019-01-24T14:52:49.902Z,36.27
2019-01-24T14:55:20.673Z,37.87
2019-01-24T14:57:51.394Z,44.63
2019-01-24T15:00:28.453Z,48.20
2019-01-24T15:02:58.942Z,38.27
2019-01-24T15:05:29.638Z,34.07
2019-01-24T15:08:00.615Z,40.90
2019-01-24T15:10:31.866Z,29.87
2019-01-24T15:13:02.523Z,38.60
2019-01-24T15:15:34.378Z,35.53
2019-01-24T15:18:05.070Z,34.30
2019-01-24T15:20:35.732Z,37.33
2019-01-24T15:23:06.205Z,40.07
2019-01-24T15:25:37.025Z,33.37
2019-01-24T15:28:07.483Z,35.13
2019-01-24T15:30:38.122Z,28.00
2019-01-24T15:33:08.781Z,34.60
2019-01-24T15:35:39.388Z,32.57
2019-01-24T15:38:09.798Z,32.57
2019-01-24T15:40:39.957Z,35.00
2019-01-24T15:43:10.160Z,35.63
2019-01-24T15:45:40.533Z,33.90
2019-01-24T15:48:11.113Z,37.07
2019-01-24T15:50:41.598Z,33.40
2019-01-24T15:53:11.781Z,34.90
2019-01-24T15:55:41.953Z,37.10
2019-01-24T15:58:12.225Z,30.60
2019-01-24T16:00:42.461Z,39.13
2019-01-24T16:03:12.746Z,32.33
2019-01-24T16:05:43.036Z,38.10
2019-01-24T16:08:13.239Z,34.13
2019-01-24T16:10:43.413Z,32.80
2019-01-24T16:13:13.564Z,33.57
2019-01-24T16:15:43.782Z,33.00
2019-01-24T16:18:14.403Z,33.13
2019-01-24T16:20:44.993Z,32.73
2019-01-24T16:23:15.249Z,35.47
2019-01-24T16:25:45.605Z,35.40
2019-01-24T16:28:16.027Z,33.77
2019-01-24T16:30:46.292Z,36.50
2019-01-24T16:33:16.685Z,36.53
2019-01-24T16:35:47.191Z,34.67
2019-01-24T16:38:17.742Z,31.60
2019-01-24T16:40:48.177Z,35.27
2019-01-24T16:43:18.857Z,37.27
2019-01-24T16:45:49.382Z,33.17
2019-01-24T16:48:19.882Z,36.93
2019-01-24T16:50:50.546Z,37.00
2019-01-24T16:53:20.914Z,38.73
2019-01-24T16:55:51.197Z,32.80
2019-01-24T16:58:21.577Z,38.17
2019-01-24T17:00:57.080Z,37.00
2019-01-24T17:03:27.334Z,37.63
2019-01-24T17:05:57.642Z,31.30
2019-01-24T17:08:27.952Z,37.77
2019-01-24T17:10:58.427Z,34.90
2019-01-24T17:13:31.351Z,35.53
2019-01-24T17:16:01.664Z,40.73
2019-01-24T17:18:32.334Z,29.50
2019-01-24T17:21:02.940Z,31.43
2019-01-24T17:23:33.404Z,35.03
2019-01-24T17:26:05.013Z,38.23
2019-01-24T17:28:35.395Z,37.63
2019-01-24T17:31:09.490Z,34.03
2019-01-24T17:33:39.954Z,36.00
2019-01-24T17:36:10.580Z,36.57
2019-01-24T17:38:40.896Z,38.70
2019-01-24T17:41:11.267Z,38.20
2019-01-24T17:43:41.679Z,40.37
2019-01-24T17:46:12.110Z,37.17
2019-01-24T17:48:42.411Z,40.87
2019-01-24T17:51:13.149Z,36.77
2019-01-24T17:53:43.564Z,35.57
2019-01-24T17:56:14.066Z,35.10
2019-01-24T17:58:44.474Z,37.37
2019-01-24T18:01:14.852Z,31.93
2019-01-24T18:03:45.498Z,26.83
2019-01-24T18:06:15.924Z,33.00
2019-01-24T18:08:46.318Z,40.60
2019-01-24T18:11:17.165Z,35.57
2019-01-24T18:13:47.581Z,41.97
2019-01-24T18:16:18.165Z,36.30
2019-01-24T18:18:48.627Z,41.13
2019-01-24T18:21:19.306Z,38.57
2019-01-24T18:23:51.580Z,38.80
2019-01-24T18:26:22.396Z,36.23
2019-01-24T18:28:53.984Z,37.07
2019-01-24T18:31:24.321Z,36.50
2019-01-24T18:33:54.770Z,44.17
2019-01-24T18:36:25.203Z,44.33
2019-01-24T18:38:55.590Z,31.67
2019-01-24T18:41:26.376Z,33.00
2019-01-24T18:43:56.791Z,35.27
2019-01-24T18:46:28.657Z,30.47
2019-01-24T18:48:59.395Z,37.63
2019-01-24T18:51:29.911Z,39.77
2019-01-24T18:54:00.411Z,43.83
2019-01-24T18:56:30.849Z,34.53
2019-01-24T18:59:01.252Z,45.97
2019-01-24T19:01:31.720Z,39.77
2019-01-24T19:04:05.918Z,34.03
2019-01-24T19:06:37.048Z,43.93
2019-01-24T19:09:13.964Z,37.57
2019-01-24T19:11:44.743Z,40.70
2019-01-24T19:14:15.049Z,45.70
2019-01-24T19:16:45.537Z,43.47
2019-01-24T19:19:18.024Z,45.10
2019-01-24T19:21:48.665Z,46.03
2019-01-24T19:24:19.212Z,81.00
2019-01-24T19:26:49.854Z,100.23
2019-01-24T19:29:20.452Z,80.33
2019-01-24T19:31:51.232Z,96.90
2019-01-24T19:34:21.843Z,203.50
2019-01-24T19:36:52.300Z,67.97
2019-01-24T19:39:22.870Z,134.17
2019-01-24T19:41:53.255Z,80.90
2019-01-24T19:44:28.357Z,145.23
2019-01-24T19:46:58.746Z,105.30
2019-01-24T19:49:32.073Z,102.83
2019-01-24T19:52:03.288Z,70.33
2019-01-24T19:54:33.886Z,75.03
2019-01-24T19:57:04.735Z,47.13
2019-01-24T19:59:35.490Z,63.27
2019-01-24T20:02:05.966Z,60.40
2019-01-24T20:04:36.419Z,48.07
2019-01-24T20:07:06.928Z,49.93
2019-01-24T20:09:37.368Z,55.37
2019-01-24T20:12:08.225Z,48.57
2019-01-24T20:14:38.739Z,46.47
2019-01-24T20:17:11.927Z,42.17
2019-01-24T20:19:43.490Z,43.90
2019-01-24T20:22:13.985Z,44.27
2019-01-24T20:24:44.309Z,49.80
2019-01-24T20:27:14.891Z,47.80
2019-01-24T20:29:51.467Z,47.67
2019-01-24T20:32:22.055Z,58.77
2019-01-24T20:34:52.501Z,49.97
2019-01-24T20:37:24.041Z,49.10
2019-01-24T20:39:54.493Z,48.03
2019-01-24T20:42:24.835Z,47.97
2019-01-24T20:44:57.769Z,46.30
2019-01-24T20:47:28.339Z,47.23
2019-01-24T20:49:58.670Z,50.17
2019-01-24T20:52:29.200Z,45.43
2019-01-24T20:55:01.698Z,48.90
2019-01-24T20:57:32.859Z,47.80
2019-01-24T21:00:03.199Z,46.43
2019-01-24T21:02:33.691Z,50.90
2019-01-24T21:05:05.364Z,45.20
2019-01-24T21:07:35.827Z,45.60
2019-01-24T21:10:07.884Z,49.10
2019-01-24T21:12:38.248Z,54.10
2019-01-24T21:15:09.795Z,53.60
2019-01-24T21:17:40.614Z,52.87
2019-01-24T21:20:13.496Z,50.23
2019-01-24T21:22:44.430Z,51.63
2019-01-24T21:25:18.830Z,48.73
2019-01-24T21:27:50.151Z,45.73
2019-01-24T21:30:26.183Z,49.40
2019-01-24T21:32:56.596Z,55.53
2019-01-24T21:35:27.022Z,47.43
2019-01-24T21:37:57.414Z,53.47
2019-01-24T21:40:28.039Z,44.83
2019-01-24T21:42:59.074Z,49.97
2019-01-24T21:45:31.981Z,49.87
2019-01-24T21:48:02.498Z,54.33
2019-01-24T21:50:33.494Z,47.47
2019-01-24T21:53:07.016Z,41.27
2019-01-24T21:55:37.432Z,50.47
2019-01-24T21:58:09.302Z,51.23
2019-01-24T22:00:39.773Z,46.10
2019-01-24T22:03:10.131Z,42.30
2019-01-24T22:05:40.796Z,52.40
2019-01-24T22:08:11.206Z,49.10
2019-01-24T22:10:41.614Z,56.33
2019-01-24T22:13:11.982Z,52.67
2019-01-24T22:15:42.420Z,54.90
2019-01-24T22:18:12.810Z,55.27
2019-01-24T22:20:43.358Z,54.63
2019-01-24T22:23:13.716Z,46.20
2019-01-24T22:25:44.348Z,52.07
2019-01-24T22:28:14.866Z,51.40
2019-01-24T22:30:49.355Z,52.23
2019-01-24T22:33:19.756Z,52.40
2019-01-24T22:35:53.736Z,50.47
2019-01-24T22:38:26.310Z,52.47
2019-01-24T22:40:56.707Z,50.90
2019-01-24T22:43:27.089Z,46.00
2019-01-24T22:45:57.422Z,51.90
2019-01-24T22:48:27.817Z,52.20
2019-01-24T22:50:58.372Z,49.57
2019-01-24T22:53:28.970Z,51.03
2019-01-24T22:55:59.421Z,50.13
2019-01-24T22:58:29.837Z,47.87
2019-01-24T23:01:29.069Z,54.50
2019-01-24T23:04:18.438Z,58.00
2019-01-24T23:06:48.842Z,49.33
2019-01-24T23:09:19.409Z,42.30
2019-01-24T23:11:49.794Z,60.50
2019-01-24T23:14:20.165Z,55.43
2019-01-24T23:16:50.570Z,53.43
2019-01-24T23:19:20.936Z,58.63
2019-01-24T23:21:51.374Z,52.97
2019-01-24T23:24:21.788Z,53.03
2019-01-24T23:26:52.516Z,50.13
2019-01-24T23:29:22.922Z,60.23
2019-01-24T23:31:53.267Z,51.40
2019-01-24T23:34:23.560Z,53.50
2019-01-24T23:36:54.049Z,49.30
2019-01-24T23:39:24.422Z,49.03
2019-01-24T23:41:54.910Z,56.00
2019-01-24T23:44:25.326Z,53.13
2019-01-24T23:46:55.682Z,59.20
2019-01-24T23:49:26.170Z,55.23
2019-01-24T23:51:58.123Z,49.73
2019-01-24T23:54:28.658Z,56.10
2019-01-24T23:56:59.136Z,52.53
2019-01-24T23:59:30.127Z,59.37
